createdAt,value
2022-08-21T05:52:37.758Z,19.06
2022-08-21T05:55:05.661Z,19.09
2022-08-21T05:57:32.537Z,19.10
2022-08-21T05:59:59.757Z,19.12
2022-08-21T06:02:26.749Z,19.13
2022-08-21T06:04:53.669Z,19.13
2022-08-21T06:07:20.725Z,19.13
2022-08-21T06:09:47.776Z,19.14
2022-08-21T06:12:14.776Z,19.16
2022-08-21T06:15:02.569Z,19.18
2022-08-21T06:17:49.485Z,19.18
2022-08-21T06:20:36.542Z,19.17
2022-08-21T06:23:23.944Z,19.15
2022-08-21T06:26:21.185Z,19.17
2022-08-21T06:29:08.124Z,19.19
2022-08-21T06:31:55.207Z,19.17
2022-08-21T06:34:42.634Z,19.19
2022-08-21T06:37:30.049Z,19.20
2022-08-21T06:40:17.234Z,19.21
2022-08-21T06:43:15.097Z,19.22
2022-08-21T06:46:02.677Z,19.14
2022-08-21T06:48:49.774Z,19.20
2022-08-21T06:51:36.750Z,19.20
2022-08-21T06:54:23.790Z,19.22
2022-08-21T06:57:10.961Z,19.22
2022-08-21T06:59:57.956Z,19.22
2022-08-21T07:02:45.032Z,19.24
2022-08-21T07:05:32.057Z,19.11
2022-08-21T07:08:19.685Z,19.26
2022-08-21T07:11:08.393Z,19.25
2022-08-21T07:13:55.434Z,19.29
2022-08-21T07:16:42.806Z,19.31
2022-08-21T07:19:30.162Z,19.29
2022-08-21T07:22:21.065Z,19.27
2022-08-21T07:25:07.991Z,19.30
2022-08-21T07:27:55.080Z,19.30
2022-08-21T07:30:42.260Z,19.25
2022-08-21T07:33:29.330Z,19.28
2022-08-21T07:36:16.499Z,19.30
2022-08-21T07:39:03.469Z,19.29
2022-08-21T07:41:51.053Z,19.28
2022-08-21T07:44:38.472Z,19.30
2022-08-21T07:47:05.794Z,19.32
2022-08-21T07:49:32.993Z,19.31
2022-08-21T07:52:00.753Z,19.32
2022-08-21T07:54:33.988Z,19.25
2022-08-21T07:57:02.824Z,19.33
2022-08-21T07:59:30.241Z,19.35
2022-08-21T08:01:57.683Z,19.34
2022-08-21T08:04:26.614Z,19.30
2022-08-21T08:06:54.076Z,19.33
2022-08-21T08:09:21.050Z,19.32
2022-08-21T08:12:08.222Z,19.29
2022-08-21T08:14:55.125Z,19.25
2022-08-21T08:17:42.230Z,19.21
2022-08-21T08:20:31.893Z,19.19
2022-08-21T08:23:18.944Z,19.18
2022-08-21T08:26:05.877Z,19.17
2022-08-21T08:28:54.077Z,19.15
2022-08-21T08:31:40.982Z,19.15
2022-08-21T08:34:28.105Z,19.13
2022-08-21T08:37:15.026Z,19.12
2022-08-21T08:40:03.431Z,19.11
2022-08-21T08:42:57.193Z,18.96
2022-08-21T08:45:45.070Z,19.11
2022-08-21T08:48:35.389Z,19.12
2022-08-21T08:51:06.196Z,18.99
2022-08-21T08:53:41.062Z,19.11
2022-08-21T08:56:08.460Z,19.07
2022-08-21T08:58:40.676Z,19.08
2022-08-21T09:01:18.536Z,19.03
2022-08-21T09:03:51.224Z,19.08
2022-08-21T09:06:21.320Z,19.09
2022-08-21T09:08:55.917Z,19.09
2022-08-21T09:11:56.577Z,19.08
2022-08-21T09:14:57.785Z,19.06
2022-08-21T09:17:40.359Z,19.07
2022-08-21T09:20:37.893Z,18.93
2022-08-21T09:23:13.828Z,19.08
2022-08-21T09:25:54.013Z,19.03
2022-08-21T09:28:21.264Z,19.07
2022-08-21T09:30:48.340Z,19.05
2022-08-21T09:33:17.019Z,19.04
2022-08-21T09:35:58.888Z,19.03
2022-08-21T09:38:38.891Z,19.03
2022-08-21T09:41:09.558Z,19.04
2022-08-21T09:43:38.719Z,18.95
2022-08-21T09:46:13.707Z,19.03
2022-08-21T09:48:47.437Z,19.03
2022-08-21T09:51:37.952Z,19.01
2022-08-21T09:54:08.371Z,19.01
2022-08-21T09:56:53.902Z,18.99
2022-08-21T09:59:35.720Z,18.97
2022-08-21T10:02:23.878Z,18.96
2022-08-21T10:04:53.796Z,18.96
2022-08-21T10:07:23.952Z,18.98
2022-08-21T10:10:09.576Z,18.98
2022-08-21T10:12:59.929Z,19.00
2022-08-21T10:15:52.231Z,19.02
2022-08-21T10:18:49.272Z,19.04
2022-08-21T10:21:28.757Z,19.06
2022-08-21T10:24:30.843Z,19.09
2022-08-21T10:27:16.757Z,19.10
2022-08-21T10:30:08.104Z,19.11
2022-08-21T10:32:41.200Z,19.12
2022-08-21T10:35:23.317Z,19.14
2022-08-21T10:38:03.162Z,19.16
2022-08-21T10:40:58.544Z,19.19
2022-08-21T10:43:58.501Z,19.20
2022-08-21T10:47:11.681Z,19.22
2022-08-21T10:50:27.440Z,19.26
2022-08-21T10:53:21.981Z,19.29
2022-08-21T10:56:22.189Z,19.29
2022-08-21T10:59:43.633Z,19.33
2022-08-21T11:02:47.265Z,19.35
2022-08-21T11:05:50.122Z,19.34
2022-08-21T11:08:52.586Z,19.36
2022-08-21T11:11:59.106Z,19.38
2022-08-21T11:15:28.998Z,19.37
2022-08-21T11:18:38.082Z,19.37
2022-08-21T11:21:48.001Z,19.36
2022-08-21T11:24:45.665Z,19.36
2022-08-21T11:27:42.421Z,19.38
2022-08-21T11:30:30.244Z,19.39
2022-08-21T11:33:38.660Z,19.39
2022-08-21T11:36:31.438Z,19.35
2022-08-21T11:39:23.233Z,19.41
2022-08-21T11:42:35.993Z,19.43
2022-08-21T11:45:34.869Z,19.42
2022-08-21T11:49:00.059Z,19.42
2022-08-21T11:52:18.426Z,19.38
2022-08-21T11:55:15.965Z,19.38
2022-08-21T11:58:42.099Z,19.36
2022-08-21T12:01:42.475Z,19.30
2022-08-21T12:04:46.942Z,19.28
2022-08-21T12:07:50.026Z,19.27
2022-08-21T12:10:43.232Z,19.27
2022-08-21T12:13:47.422Z,19.25
2022-08-21T12:16:48.961Z,19.23
2022-08-21T12:19:41.880Z,19.20
2022-08-21T12:22:13.065Z,19.19
2022-08-21T12:25:04.681Z,19.19
2022-08-21T12:28:07.177Z,19.19
2022-08-21T12:31:01.437Z,19.18
2022-08-21T12:33:58.554Z,19.17
2022-08-21T12:37:04.909Z,19.16
2022-08-21T12:39:34.574Z,19.18
2022-08-21T12:42:16.147Z,19.19
2022-08-21T12:45:01.338Z,19.16
2022-08-21T12:47:37.476Z,19.16
2022-08-21T12:50:13.118Z,19.16
2022-08-21T12:53:29.609Z,19.18
2022-08-21T12:56:02.294Z,19.19
2022-08-21T12:58:29.774Z,19.11
2022-08-21T13:01:14.466Z,19.08
2022-08-21T13:03:42.869Z,19.18
2022-08-21T13:06:17.538Z,19.16
2022-08-21T13:08:47.439Z,19.16
2022-08-21T13:11:32.634Z,19.14
2022-08-21T13:14:04.663Z,19.07
2022-08-21T13:16:32.801Z,19.12
2022-08-21T13:19:07.656Z,19.12
2022-08-21T13:21:44.517Z,19.12
2022-08-21T13:24:39.094Z,19.11
2022-08-21T13:27:04.768Z,19.10
2022-08-21T13:29:38.526Z,19.07
2022-08-21T13:32:08.090Z,19.06
2022-08-21T13:34:37.769Z,19.08
2022-08-21T13:37:12.512Z,19.09
2022-08-21T13:39:39.707Z,19.09
2022-08-21T13:42:12.935Z,19.07
2022-08-21T13:44:45.671Z,18.92
2022-08-21T13:47:15.920Z,19.03
2022-08-21T13:49:49.061Z,19.00
2022-08-21T13:52:25.189Z,19.00
2022-08-21T13:55:13.466Z,18.98
2022-08-21T13:57:40.480Z,18.99
2022-08-21T14:00:31.896Z,18.94
2022-08-21T14:03:10.578Z,18.89
2022-08-21T14:05:44.229Z,18.86
2022-08-21T14:08:30.304Z,18.82
2022-08-21T14:10:58.721Z,18.81
2022-08-21T14:13:41.193Z,18.76
2022-08-21T14:16:23.393Z,18.75
2022-08-21T14:19:04.066Z,18.71
2022-08-21T14:21:35.905Z,18.58
2022-08-21T14:24:08.199Z,18.64
2022-08-21T14:26:45.088Z,18.60
2022-08-21T14:29:15.955Z,18.58
2022-08-21T14:31:44.137Z,18.57
2022-08-21T14:34:19.531Z,18.56
2022-08-21T14:36:48.026Z,18.56
2022-08-21T14:39:14.948Z,18.55
2022-08-21T14:41:43.853Z,18.42
2022-08-21T14:44:11.448Z,18.51
2022-08-21T14:46:45.845Z,18.38
2022-08-21T14:49:28.561Z,18.49
2022-08-21T14:51:58.844Z,18.34
2022-08-21T14:54:31.685Z,18.49
2022-08-21T14:57:07.220Z,18.49
2022-08-21T14:59:55.619Z,18.48
2022-08-21T15:02:44.972Z,18.47
2022-08-21T15:05:15.437Z,18.42
2022-08-21T15:08:11.261Z,18.44
2022-08-21T15:11:11.446Z,18.41
2022-08-21T15:13:58.933Z,18.36
2022-08-21T15:16:47.497Z,18.34
2022-08-21T15:19:34.472Z,18.31
2022-08-21T15:22:28.080Z,18.32
2022-08-21T15:25:15.521Z,18.32
2022-08-21T15:28:02.661Z,18.32
2022-08-21T15:30:39.371Z,18.27
2022-08-21T15:33:27.170Z,18.28
2022-08-21T15:36:14.176Z,18.18
2022-08-21T15:39:01.093Z,18.21
2022-08-21T15:41:48.125Z,18.20
2022-08-21T15:44:36.086Z,18.18
2022-08-21T15:47:23.229Z,18.16
2022-08-21T15:50:10.385Z,18.16
2022-08-21T15:52:37.405Z,18.16
2022-08-21T15:55:06.533Z,18.16
2022-08-21T15:57:35.776Z,17.94
2022-08-21T16:00:14.600Z,18.02
2022-08-21T16:02:45.607Z,18.15
2022-08-21T16:05:13.561Z,18.10
2022-08-21T16:07:41.033Z,18.10
2022-08-21T16:10:08.929Z,18.10
2022-08-21T16:12:41.902Z,18.09
2022-08-21T16:15:11.755Z,18.09
2022-08-21T16:17:49.306Z,18.08
2022-08-21T16:20:25.540Z,18.05
2022-08-21T16:22:54.494Z,18.00
2022-08-21T16:25:22.238Z,17.92
2022-08-21T16:27:56.202Z,18.01
2022-08-21T16:30:27.437Z,18.04
2022-08-21T16:32:54.989Z,18.02
2022-08-21T16:35:22.977Z,18.02
2022-08-21T16:37:53.132Z,18.02
2022-08-21T16:40:23.377Z,17.94
2022-08-21T16:42:50.992Z,18.02
2022-08-21T16:45:21.419Z,18.01
2022-08-21T16:47:48.425Z,17.99
2022-08-21T16:50:22.553Z,17.97
2022-08-21T16:52:50.036Z,17.96
2022-08-21T16:55:17.682Z,17.92
2022-08-21T16:57:44.978Z,17.78
2022-08-21T17:00:13.305Z,17.88
2022-08-21T17:02:45.748Z,17.86
2022-08-21T17:05:14.100Z,17.85
2022-08-21T17:07:42.832Z,17.84
2022-08-21T17:10:12.559Z,17.84
2022-08-21T17:12:42.637Z,17.83
2022-08-21T17:15:21.538Z,17.78
2022-08-21T17:17:49.549Z,17.74
2022-08-21T17:20:17.536Z,17.71
2022-08-21T17:22:44.576Z,17.68
2022-08-21T17:25:11.730Z,17.64
2022-08-21T17:27:39.969Z,17.58
2022-08-21T17:30:08.257Z,17.49
2022-08-21T17:32:35.317Z,17.49
2022-08-21T17:35:02.633Z,17.45
2022-08-21T17:37:29.645Z,17.36
2022-08-21T17:39:57.590Z,17.40
2022-08-21T17:42:25.324Z,17.36
2022-08-21T17:45:12.945Z,17.33
2022-08-21T17:47:59.896Z,17.15
2022-08-21T17:50:46.897Z,17.19
2022-08-21T17:53:33.794Z,17.18
2022-08-21T17:56:21.439Z,17.12
2022-08-21T17:59:10.633Z,17.08
2022-08-21T18:02:01.787Z,17.06
2022-08-21T18:04:50.553Z,17.04
2022-08-21T18:07:41.252Z,16.89
2022-08-21T18:10:31.629Z,16.99
2022-08-21T18:13:21.737Z,16.90
2022-08-21T18:16:10.749Z,16.92
2022-08-21T18:19:02.630Z,16.90
2022-08-21T18:21:51.276Z,16.73
2022-08-21T18:24:38.504Z,16.84
2022-08-21T18:27:29.685Z,16.83
2022-08-21T18:30:19.178Z,16.82
2022-08-21T18:33:06.670Z,16.80
2022-08-21T18:35:53.825Z,16.79
2022-08-21T18:38:41.894Z,16.78
2022-08-21T18:41:29.410Z,16.76
2022-08-21T18:44:16.518Z,16.74
2022-08-21T18:47:09.169Z,16.71
2022-08-21T18:49:56.041Z,16.70
2022-08-21T18:52:52.486Z,16.66
2022-08-21T18:55:42.130Z,16.49
2022-08-21T18:58:29.802Z,16.61
2022-08-21T19:01:16.855Z,16.60
2022-08-21T19:04:04.752Z,16.57
2022-08-21T19:06:51.744Z,16.57
2022-08-21T19:09:40.077Z,16.57
2022-08-21T19:12:29.554Z,16.54
2022-08-21T19:15:17.421Z,16.55
2022-08-21T19:18:06.830Z,16.56
2022-08-21T19:20:55.642Z,16.55
2022-08-21T19:23:45.048Z,16.49
2022-08-21T19:26:32.177Z,16.55
2022-08-21T19:29:35.220Z,16.56
2022-08-21T19:32:26.838Z,16.57
2022-08-21T19:35:14.351Z,16.57
2022-08-21T19:38:02.031Z,16.55
2022-08-21T19:40:49.211Z,16.57
2022-08-21T19:43:36.602Z,16.57
2022-08-21T19:46:23.637Z,16.57
2022-08-21T19:49:13.533Z,16.58
2022-08-21T19:52:01.969Z,16.58
2022-08-21T19:54:59.956Z,16.59
2022-08-21T19:57:47.064Z,16.61
2022-08-21T20:00:35.791Z,16.45
2022-08-21T20:03:22.719Z,16.62
2022-08-21T20:06:09.777Z,16.61
2022-08-21T20:08:56.728Z,16.62
2022-08-21T20:11:59.633Z,16.60
2022-08-21T20:14:49.543Z,16.59
2022-08-21T20:17:38.989Z,16.53
2022-08-21T20:20:26.650Z,16.59
2022-08-21T20:23:18.557Z,16.59
2022-08-21T20:26:18.428Z,16.59
2022-08-21T20:29:07.172Z,16.60
2022-08-21T20:31:54.215Z,16.60
2022-08-21T20:37:58.834Z,16.61
2022-08-21T20:40:46.748Z,16.61
2022-08-21T20:43:34.653Z,16.62
2022-08-21T20:46:22.696Z,16.63
2022-08-21T20:49:09.934Z,16.62
2022-08-21T20:52:05.560Z,16.57
2022-08-21T20:55:09.401Z,16.68
2022-08-21T20:58:36.039Z,16.70
2022-08-21T21:01:08.369Z,16.72
2022-08-21T21:03:42.336Z,16.74
2022-08-21T21:06:19.132Z,16.74
2022-08-21T21:08:52.511Z,16.74
2022-08-21T21:11:42.885Z,16.73
2022-08-21T21:14:15.524Z,16.75
2022-08-21T21:16:52.179Z,16.76
2022-08-21T21:19:37.204Z,16.75
2022-08-21T21:22:14.972Z,16.76
2022-08-21T21:24:56.370Z,16.73
2022-08-21T21:27:29.675Z,16.63
2022-08-21T21:30:05.388Z,16.81
2022-08-21T21:32:32.480Z,16.81
2022-08-21T21:35:04.141Z,16.84
2022-08-21T21:37:39.589Z,16.87
2022-08-21T21:40:48.208Z,16.89
2022-08-21T21:43:30.421Z,16.89
2022-08-21T21:46:07.109Z,16.90
2022-08-21T21:49:23.465Z,16.88
2022-08-21T21:52:57.058Z,16.90
2022-08-21T21:55:55.324Z,16.92
2022-08-21T21:58:34.532Z,16.92
2022-08-21T22:01:16.726Z,16.92
2022-08-21T22:03:49.548Z,16.94
2022-08-21T22:06:29.723Z,16.89
2022-08-21T22:09:19.198Z,16.96
2022-08-21T22:11:58.506Z,16.97
2022-08-21T22:14:36.533Z,17.01
2022-08-21T22:17:29.149Z,17.01
2022-08-21T22:20:13.981Z,17.01
2022-08-21T22:22:44.072Z,17.03
2022-08-21T22:25:21.686Z,17.01
2022-08-21T22:27:58.353Z,17.04
2022-08-21T22:30:48.069Z,17.04
2022-08-21T22:33:20.149Z,16.93
2022-08-21T22:35:51.582Z,17.06
2022-08-21T22:38:34.077Z,17.06
2022-08-21T22:41:12.374Z,17.08
2022-08-21T22:43:55.096Z,17.09
2022-08-21T22:46:52.232Z,17.12
2022-08-21T22:49:31.832Z,17.15
2022-08-21T22:52:19.783Z,17.16
2022-08-21T22:54:53.181Z,17.16
2022-08-21T22:57:30.276Z,17.15
2022-08-21T23:00:06.716Z,17.16
2022-08-21T23:02:57.129Z,17.13
2022-08-21T23:05:33.337Z,17.19
2022-08-21T23:08:34.580Z,17.21
2022-08-21T23:11:15.143Z,17.23
2022-08-21T23:13:46.661Z,17.23
2022-08-21T23:16:28.808Z,17.24
2022-08-21T23:19:34.405Z,17.10
2022-08-21T23:22:44.026Z,17.26
2022-08-21T23:25:52.514Z,17.27
2022-08-21T23:28:19.633Z,17.28
2022-08-21T23:31:25.176Z,17.28
2022-08-21T23:37:51.588Z,17.29
2022-08-21T23:40:51.191Z,17.29
2022-08-21T23:44:05.276Z,17.27
2022-08-21T23:46:45.589Z,17.27
2022-08-21T23:49:22.051Z,17.27
2022-08-21T23:52:11.145Z,17.23
2022-08-21T23:54:51.304Z,17.29
2022-08-21T23:58:01.040Z,17.29
